createdAt,value
2023-05-22T00:01:46.880Z,93.99
2023-05-22T00:06:52.553Z,100.00
2023-05-22T00:11:56.760Z,97.92
2023-05-22T00:17:00.859Z,100.00
2023-05-22T00:22:06.821Z,100.00
2023-05-22T00:27:10.758Z,100.00
2023-05-22T00:32:14.781Z,100.00
2023-05-22T00:37:20.911Z,100.00
2023-05-22T00:42:25.171Z,100.00
2023-05-22T00:47:29.238Z,100.00
2023-05-22T00:52:36.572Z,100.00
2023-05-22T00:57:42.116Z,100.00
2023-05-22T01:02:46.318Z,100.00
2023-05-22T01:07:51.851Z,100.00
2023-05-22T01:13:02.875Z,100.00
2023-05-22T01:18:19.868Z,100.00
2023-05-22T01:23:57.654Z,100.00
2023-05-22T01:29:16.557Z,100.00
2023-05-22T01:34:23.084Z,100.00
2023-05-22T01:39:29.984Z,100.00
2023-05-22T01:44:33.976Z,100.00
2023-05-22T01:49:39.984Z,100.00
2023-05-22T01:54:52.971Z,100.00
2023-05-22T02:00:07.421Z,100.00
2023-05-22T02:05:24.578Z,100.00
2023-05-22T02:10:30.681Z,100.00
2023-05-22T02:15:39.032Z,100.00
2023-05-22T02:20:50.914Z,100.00
2023-05-22T02:25:55.561Z,100.00
2023-05-22T02:30:59.585Z,100.00
2023-05-22T02:36:05.911Z,100.00
2023-05-22T02:41:10.015Z,100.00
2023-05-22T02:46:14.335Z,100.00
2023-05-22T02:51:19.677Z,100.00
2023-05-22T02:56:24.169Z,100.00
2023-05-22T03:01:30.625Z,100.00
2023-05-22T03:06:37.298Z,100.00
2023-05-22T03:11:41.549Z,100.00
2023-05-22T03:16:45.959Z,100.00
2023-05-22T03:21:51.475Z,100.00
2023-05-22T03:26:55.603Z,100.00
2023-05-22T03:32:11.520Z,100.00
2023-05-22T03:37:16.854Z,100.00
2023-05-22T03:42:20.851Z,100.00
2023-05-22T03:47:24.940Z,100.00
2023-05-22T03:52:30.542Z,100.00
2023-05-22T03:57:34.528Z,100.00
2023-05-22T04:02:40.053Z,100.00
2023-05-22T04:07:45.547Z,100.00
2023-05-22T04:12:49.470Z,100.00
2023-05-22T04:17:54.698Z,100.00
2023-05-22T04:23:00.139Z,100.00
2023-05-22T04:28:04.469Z,100.00
2023-05-22T04:33:11.161Z,100.00
2023-05-22T04:38:18.438Z,100.00
2023-05-22T04:43:23.494Z,100.00
2023-05-22T04:48:28.179Z,100.00
2023-05-22T04:53:33.667Z,100.00
2023-05-22T04:58:38.246Z,100.00
2023-05-22T05:03:43.251Z,100.00
2023-05-22T05:08:49.854Z,100.00
2023-05-22T05:13:54.035Z,99.30
2023-05-22T05:18:57.979Z,99.75
2023-05-22T05:24:03.549Z,87.97
2023-05-22T05:29:07.459Z,80.23
2023-05-22T05:34:20.317Z,76.84
2023-05-22T05:39:48.819Z,82.08
2023-05-22T05:44:52.910Z,84.08
2023-05-22T05:49:58.672Z,84.94
2023-05-22T05:55:07.788Z,81.32
2023-05-22T06:00:13.531Z,79.46
2023-05-22T06:05:20.302Z,78.68
2023-05-22T06:10:29.500Z,81.04
2023-05-22T06:15:48.517Z,76.31
2023-05-22T06:20:53.358Z,73.52
2023-05-22T06:25:59.001Z,77.67
2023-05-22T06:31:03.790Z,75.40
2023-05-22T06:36:09.491Z,75.45
2023-05-22T06:41:14.971Z,73.27
2023-05-22T06:46:19.352Z,65.33
2023-05-22T06:51:29.713Z,66.88
2023-05-22T06:56:43.131Z,66.91
2023-05-22T07:01:52.391Z,68.75
2023-05-22T07:07:06.479Z,70.31
2023-05-22T07:12:12.626Z,70.35
2023-05-22T07:17:17.221Z,66.67
2023-05-22T07:22:22.028Z,70.34
2023-05-22T07:27:27.886Z,69.64
2023-05-22T07:32:31.950Z,73.94
2023-05-22T07:37:39.166Z,74.29
2023-05-22T07:42:44.635Z,72.42
2023-05-22T07:47:50.369Z,69.50
2023-05-22T07:52:54.897Z,71.04
2023-05-22T07:58:04.235Z,70.04
2023-05-22T08:03:13.768Z,70.17
2023-05-22T08:08:18.127Z,68.36
2023-05-22T08:13:23.819Z,68.21
2023-05-22T08:18:29.401Z,65.66
2023-05-22T08:23:36.455Z,66.01
2023-05-22T08:28:44.402Z,64.67
2023-05-22T08:33:48.512Z,65.63
2023-05-22T08:38:52.778Z,67.92
2023-05-22T08:43:58.773Z,66.29
2023-05-22T08:49:03.630Z,64.94
2023-05-22T08:54:08.477Z,64.07
2023-05-22T08:59:14.224Z,63.57
2023-05-22T09:04:18.834Z,63.64
2023-05-22T09:09:22.836Z,61.17
2023-05-22T09:14:28.148Z,61.00
2023-05-22T09:19:32.336Z,60.98
2023-05-22T09:24:40.105Z,60.70
2023-05-22T09:29:53.067Z,60.11
2023-05-22T09:35:04.224Z,60.81
2023-05-22T09:40:11.846Z,59.54
2023-05-22T09:45:22.837Z,55.62
2023-05-22T09:50:26.803Z,55.47
2023-05-22T09:55:32.188Z,54.13
2023-05-22T10:00:39.244Z,53.27
2023-05-22T10:05:49.956Z,49.69
2023-05-22T10:10:54.318Z,52.41
2023-05-22T10:16:04.256Z,52.63
2023-05-22T10:21:08.461Z,49.40
2023-05-22T10:26:12.842Z,49.80
2023-05-22T10:31:30.205Z,49.53
2023-05-22T10:37:16.916Z,48.86
2023-05-22T10:42:22.421Z,48.41
2023-05-22T10:47:27.985Z,48.22
2023-05-22T10:52:32.203Z,47.88
2023-05-22T10:57:38.373Z,47.43
2023-05-22T11:02:45.691Z,46.93
2023-05-22T11:08:10.810Z,45.71
2023-05-22T11:13:14.818Z,45.88
2023-05-22T11:18:20.259Z,43.87
2023-05-22T11:23:26.709Z,41.57
2023-05-22T11:28:31.971Z,40.83
2023-05-22T11:33:37.043Z,40.06
2023-05-22T11:38:41.891Z,40.35
2023-05-22T11:43:45.888Z,43.88
2023-05-22T11:48:51.264Z,41.68
2023-05-22T11:53:55.627Z,40.69
2023-05-22T11:58:59.649Z,39.67
2023-05-22T12:04:06.060Z,38.46
2023-05-22T12:09:11.017Z,37.38
2023-05-22T12:14:15.427Z,38.13
2023-05-22T12:19:20.913Z,37.85
2023-05-22T12:24:24.920Z,35.43
2023-05-22T12:29:29.178Z,36.36
2023-05-22T12:34:36.194Z,36.77
2023-05-22T12:39:40.163Z,36.88
2023-05-22T12:44:46.786Z,35.57
2023-05-22T12:49:52.367Z,34.74
2023-05-22T12:54:56.428Z,35.33
2023-05-22T13:00:00.433Z,35.65
2023-05-22T13:05:06.744Z,36.02
2023-05-22T13:10:11.108Z,35.86
2023-05-22T13:15:16.148Z,35.29
2023-05-22T13:20:21.306Z,37.79
2023-05-22T13:25:25.499Z,34.62
2023-05-22T13:30:30.151Z,32.56
2023-05-22T13:35:35.556Z,30.91
2023-05-22T13:40:39.565Z,31.43
2023-05-22T13:45:43.637Z,30.87
2023-05-22T13:50:48.981Z,31.48
2023-05-22T13:55:53.049Z,32.50
2023-05-22T14:00:57.525Z,32.03
2023-05-22T14:06:03.362Z,32.87
2023-05-22T14:11:07.416Z,33.64
2023-05-22T14:16:11.363Z,33.44
2023-05-22T14:21:18.836Z,34.55
2023-05-22T14:26:24.271Z,32.75
2023-05-22T14:31:29.451Z,31.55
2023-05-22T14:36:34.922Z,32.38
2023-05-22T14:41:38.873Z,34.40
2023-05-22T14:46:43.274Z,33.67
2023-05-22T14:51:48.837Z,34.28
2023-05-22T14:56:52.797Z,33.99
2023-05-22T15:01:57.125Z,34.36
2023-05-22T15:07:02.813Z,33.78
2023-05-22T15:12:07.291Z,35.67
2023-05-22T15:17:11.346Z,35.94
2023-05-22T15:22:19.996Z,36.27
2023-05-22T15:27:24.223Z,35.90
2023-05-22T15:33:05.311Z,35.97
2023-05-22T15:38:26.492Z,34.91
2023-05-22T15:43:30.923Z,34.34
2023-05-22T15:48:34.843Z,34.88
2023-05-22T15:53:40.251Z,37.72
2023-05-22T15:58:44.322Z,38.34
2023-05-22T16:03:48.442Z,42.34
2023-05-22T16:08:53.912Z,40.65
2023-05-22T16:13:57.872Z,42.28
2023-05-22T16:19:01.927Z,43.76
2023-05-22T16:24:07.860Z,44.84
2023-05-22T16:29:11.945Z,45.69
2023-05-22T16:34:16.789Z,48.34
2023-05-22T16:39:22.632Z,46.14
2023-05-22T16:44:26.351Z,46.22
2023-05-22T16:49:30.550Z,45.57
2023-05-22T16:54:36.918Z,48.77
2023-05-22T16:59:41.349Z,48.54
2023-05-22T17:04:46.386Z,49.70
2023-05-22T17:09:51.806Z,48.35
2023-05-22T17:14:55.654Z,48.21
2023-05-22T17:20:01.639Z,47.80
2023-05-22T17:25:08.148Z,48.71
2023-05-22T17:30:12.909Z,50.25
2023-05-22T17:35:17.021Z,52.26
2023-05-22T17:40:32.482Z,52.49
2023-05-22T17:45:49.775Z,53.59
2023-05-22T17:50:54.828Z,53.86
2023-05-22T17:56:00.207Z,55.24
2023-05-22T18:01:04.065Z,54.66
2023-05-22T18:06:08.698Z,56.03
2023-05-22T18:11:14.148Z,56.69
2023-05-22T18:16:19.495Z,57.09
2023-05-22T18:21:23.539Z,56.93
2023-05-22T18:26:28.952Z,57.76
2023-05-22T18:31:32.884Z,58.71
2023-05-22T18:36:36.833Z,58.97
2023-05-22T18:41:42.276Z,60.00
2023-05-22T18:46:46.243Z,60.77
2023-05-22T18:51:50.246Z,60.96
2023-05-22T18:56:55.551Z,60.86
2023-05-22T19:01:59.479Z,62.20
2023-05-22T19:07:03.407Z,62.62
2023-05-22T19:12:09.260Z,64.29
2023-05-22T19:17:13.779Z,65.85
2023-05-22T19:22:18.335Z,66.93
2023-05-22T19:27:23.685Z,67.87
2023-05-22T19:32:27.611Z,70.15
2023-05-22T19:37:31.525Z,72.32
2023-05-22T19:42:39.757Z,73.11
2023-05-22T19:47:43.919Z,75.45
2023-05-22T19:52:48.379Z,75.69
2023-05-22T19:57:53.782Z,75.47
2023-05-22T20:02:57.800Z,78.15
2023-05-22T20:08:01.902Z,76.99
2023-05-22T20:13:10.264Z,77.54
2023-05-22T20:18:14.512Z,77.56
2023-05-22T20:23:18.545Z,79.13
2023-05-22T20:28:23.930Z,81.85
2023-05-22T20:33:28.389Z,84.30
2023-05-22T20:38:34.812Z,86.99
2023-05-22T20:43:43.429Z,89.42
2023-05-22T20:48:48.321Z,91.32
2023-05-22T20:53:53.457Z,92.36
2023-05-22T20:58:59.003Z,91.34
2023-05-22T21:04:03.203Z,90.53
2023-05-22T21:09:07.130Z,90.48
2023-05-22T21:14:12.451Z,91.28
2023-05-22T21:19:16.596Z,93.08
2023-05-22T21:24:21.933Z,94.49
2023-05-22T21:29:27.781Z,95.14
2023-05-22T21:34:31.742Z,94.62
2023-05-22T21:39:35.820Z,100.00
2023-05-22T21:44:41.133Z,100.00
2023-05-22T21:49:45.057Z,100.00
2023-05-22T21:54:49.073Z,100.00
2023-05-22T21:59:54.612Z,100.00
2023-05-22T22:04:58.690Z,100.00
2023-05-22T22:10:02.714Z,100.00
2023-05-22T22:15:09.243Z,100.00
2023-05-22T22:20:13.376Z,100.00
2023-05-22T22:25:17.401Z,100.00
2023-05-22T22:30:22.843Z,100.00
2023-05-22T22:35:26.772Z,100.00
2023-05-22T22:40:30.730Z,100.00
2023-05-22T22:45:36.050Z,100.00
2023-05-22T22:50:40.221Z,100.00
2023-05-22T22:55:44.627Z,100.00
2023-05-22T23:00:50.486Z,100.00
2023-05-22T23:05:54.481Z,100.00
2023-05-22T23:10:58.490Z,100.00
2023-05-22T23:16:03.891Z,100.00
2023-05-22T23:21:07.868Z,100.00
2023-05-22T23:26:11.870Z,100.00
2023-05-22T23:31:17.596Z,100.00
2023-05-22T23:36:21.853Z,100.00
2023-05-22T23:41:25.761Z,100.00
2023-05-22T23:46:31.125Z,100.00
2023-05-22T23:51:35.282Z,100.00
2023-05-22T23:56:39.149Z,100.00
